This is the latest recevied weather packets stored in our database for station/object JF2ZGN-13. If no packets are shown the sender has not sent any weather packets the latest 10 day(s).
| Time | Temp. | Humidity | Pressure | Rain* | Wind** | Luminosity | Snow |
|---|---|---|---|---|---|---|---|
| 1777674179 | 11.11° C | 48% | 896.6 hPa | 0 mm | - | - | - |
| 1777673578 | 11.11° C | 54% | 896.3 hPa | 0 mm | - | - | - |
| 1777672977 | 11.11° C | 53% | 896.2 hPa | 0 mm | - | - | - |
| 1777672377 | 11.11° C | 48% | 896.1 hPa | 0 mm | - | - | - |
| 1777671777 | 10.56° C | 46% | 895.9 hPa | 0 mm | - | - | - |
| 1777671176 | 10.56° C | 50% | 895.5 hPa | 0 mm | - | - | - |
| 1777670575 | 10.56° C | 48% | 895.5 hPa | 0 mm | - | - | - |
| 1777669975 | 9.44° C | 55% | 895 hPa | 0 mm | - | - | - |
| 1777669375 | 9.44° C | 61% | 894.7 hPa | 0 mm | - | - | - |
| 1777668773 | 9.44° C | 62% | 894.5 hPa | 0 mm | - | - | - |
| 1777668173 | 8.89° C | 62% | 894.2 hPa | 0 mm | - | - | - |
| 1777667573 | 9.44° C | 59% | 894 hPa | 0 mm | - | - | - |
| 1777666972 | 9.44° C | 59% | 893.9 hPa | 0 mm | - | - | - |
| 1777666372 | 9.44° C | 61% | 893.4 hPa | 0 mm | - | - | - |
| 1777665771 | 9.44° C | 61% | 892.7 hPa | 0 mm | - | - | - |
| 1777665171 | 8.33° C | 71% | 892.6 hPa | 0 mm | - | - | - |
| 1777664570 | 7.22° C | 80% | 892.5 hPa | 0 mm | - | - | - |
| 1777663970 | 6.67° C | 84% | 892.4 hPa | 0 mm | - | - | - |
| 1777663369 | 6.67° C | 84% | 892 hPa | 0 mm | - | - | - |
| 1777662769 | 6.67° C | 83% | 891.7 hPa | 0 mm | - | - | - |
| 1777662168 | 7.22° C | 81% | 891.3 hPa | 0 mm | - | - | - |
| 1777661568 | 7.22° C | 78% | 890.8 hPa | 0 mm | - | - | - |
| 1777660967 | 6.67° C | 83% | 890.5 hPa | 0 mm | - | - | - |
| 1777660368 | 6.67° C | 81% | 890.1 hPa | 0 mm | - | - | - |
| 1777659766 | 6.67° C | 81% | 889.8 hPa | 0 mm | - | - | - |
* Rain since midnight (hover to see other rain measurements)
** Current wind speed in m/s (hover to see current wind gust speed)